Time;durP1;ratioP1;P1;durP2;ratioP2;P2;SDS_P1;SDS_P2;PMS_P1;PMS_P2;Temp;Humidity;BMP_temperature;BMP_pressure;BME280_temperature;BME280_humidity;BME280_pressure;Samples;Min_cycle;Max_cycle;Signal;HPM_P1;HPM_P2
2021/12/05 00:19:08;;;;;;;15.98;1.70;;;4.00;99.90;;;;;;5073525;28;20044;-77
2021/12/05 00:24:13;;;;;;;0.85;0.85;;;4.00;99.90;;;;;;5074538;28;20055;-77
2021/12/05 00:26:40;;;;;;;0.40;0.40;;;4.10;99.90;;;;;;5045951;28;20041;-76
2021/12/05 00:29:20;;;;;;;0.68;0.68;;;4.00;99.90;;;;;;5024604;28;20036;-77
2021/12/05 00:45:40;;;;;;;0.20;0.20;;;4.10;99.90;;;;;;5043026;28;20041;-76
2021/12/05 00:56:52;;;;;;;4.68;2.17;;;4.10;99.90;;;;;;5026431;28;20304;-76
2021/12/05 01:04:58;;;;;;;1.85;1.75;;;4.00;99.90;;;;;;5067480;28;20481;-76
2021/12/05 01:10:17;;;;;;;0.50;0.50;;;4.00;99.90;;;;;;5046822;28;20052;-76
2021/12/05 01:15:13;;;;;;;1.63;1.45;;;4.10;99.90;;;;;;5045516;28;20071;-77
2021/12/05 01:18:00;;;;;;;5.63;0.95;;;4.10;99.90;;;;;;5047722;28;20584;-76
2021/12/05 01:20:37;;;;;;;1.48;1.38;;;4.10;99.90;;;;;;5022175;28;20124;-76
2021/12/05 01:23:09;;;;;;;0.20;0.20;;;4.00;99.90;;;;;;5051991;28;20097;-76
2021/12/05 01:28:20;;;;;;;3.25;2.17;;;4.00;99.90;;;;;;5068784;28;20489;-76
2021/12/05 01:38:25;;;;;;;1.40;1.30;;;4.00;99.90;;;;;;5043976;28;20052;-76
2021/12/05 01:54:01;;;;;;;2.20;1.23;;;4.00;99.90;;;;;;5073510;28;20060;-76
2021/12/05 02:41:33;;;;;;;2.72;1.27;;;4.00;99.90;;;;;;5037923;28;20047;-76
2021/12/05 02:44:03;;;;;;;1.73;1.63;;;4.00;99.90;;;;;;5055171;28;20124;-76
2021/12/05 02:46:30;;;;;;;0.32;0.32;;;4.00;99.90;;;;;;5050901;28;20101;-76
2021/12/05 02:49:01;;;;;;;0.63;0.52;;;4.00;99.90;;;;;;5027544;28;20400;-76
2021/12/05 02:51:29;;;;;;;0.32;0.32;;;4.00;99.90;;;;;;5049729;28;20080;-76
2021/12/05 02:54:06;;;;;;;1.88;1.70;;;4.10;99.90;;;;;;5044738;28;20436;-76
2021/12/05 02:56:38;;;;;;;0.20;0.20;;;4.00;99.90;;;;;;5029872;28;20128;-76
2021/12/05 02:59:18;;;;;;;0.47;0.47;;;4.10;99.90;;;;;;5020396;28;20044;-77
2021/12/05 03:01:47;;;;;;;0.70;0.70;;;4.10;99.90;;;;;;5047063;28;20405;-76
2021/12/05 03:04:13;;;;;;;1.38;0.77;;;4.10;99.90;;;;;;5046676;28;20041;-76
2021/12/05 03:06:49;;;;;;;0.80;0.80;;;4.10;99.90;;;;;;5078693;28;20558;-76
2021/12/05 03:09:15;;;;;;;6.40;2.10;;;4.10;99.90;;;;;;5070923;28;20060;-76
2021/12/05 03:11:42;;;;;;;0.88;0.88;;;4.10;99.90;;;;;;5033116;28;20120;-76
2021/12/05 03:14:09;;;;;;;1.92;0.80;;;4.10;99.90;;;;;;5033528;28;20123;-76
2021/12/05 03:16:37;;;;;;;8.80;2.40;;;4.10;99.90;;;;;;5038818;28;20556;-76
2021/12/05 03:19:05;;;;;;;3.30;1.20;;;4.10;99.90;;;;;;5040285;28;20289;-76
2021/12/05 03:21:32;;;;;;;1.63;1.50;;;4.00;99.90;;;;;;5038201;28;20044;-76
2021/12/05 03:23:58;;;;;;;8.35;2.55;;;4.00;99.90;;;;;;5046532;28;20075;-76
2021/12/05 03:26:28;;;;;;;1.92;1.15;;;4.00;99.90;;;;;;5068645;28;20043;-76
2021/12/05 03:28:56;;;;;;;4.68;2.20;;;4.00;99.90;;;;;;5030547;28;20049;-77
2021/12/05 03:31:29;;;;;;;1.48;1.35;;;4.00;99.90;;;;;;5030272;28;20041;-76
2021/12/05 03:33:54;;;;;;;4.05;0.90;;;3.90;99.90;;;;;;5059217;28;20497;-76
2021/12/05 03:36:22;;;;;;;7.05;3.20;;;3.90;99.90;;;;;;5055866;28;20048;-76
2021/12/05 03:38:48;;;;;;;10.52;3.60;;;3.90;99.90;;;;;;5059361;28;20106;-76
2021/12/05 03:41:15;;;;;;;1.33;1.23;;;3.90;99.90;;;;;;5050585;28;20060;-76
2021/12/05 03:43:43;;;;;;;5.47;2.45;;;3.90;99.90;;;;;;5049115;28;20493;-76
2021/12/05 03:46:09;;;;;;;2.80;2.10;;;3.90;99.90;;;;;;5019722;28;20052;-76
2021/12/05 03:48:39;;;;;;;2.65;0.68;;;3.90;99.90;;;;;;5072373;28;20080;-76
2021/12/05 03:51:08;;;;;;;5.47;3.25;;;3.80;99.90;;;;;;5030139;28;20447;-76
2021/12/05 03:53:34;;;;;;;2.60;2.00;;;3.80;99.90;;;;;;5019913;28;20485;-76
2021/12/05 03:56:04;;;;;;;1.95;1.58;;;3.80;99.90;;;;;;5044388;28;20136;-76
2021/12/05 03:58:31;;;;;;;2.67;2.33;;;3.80;99.90;;;;;;5044711;28;20045;-76
2021/12/05 04:00:59;;;;;;;3.00;2.22;;;3.80;99.90;;;;;;5029580;28;20044;-76
2021/12/05 04:03:27;;;;;;;6.78;2.83;;;3.80;99.90;;;;;;5041506;28;20032;-76
2021/12/05 04:05:54;;;;;;;6.82;4.40;;;3.80;99.90;;;;;;5052623;28;20094;-76
2021/12/05 04:08:23;;;;;;;4.90;2.03;;;3.80;99.90;;;;;;5027204;28;20044;-76
2021/12/05 04:10:52;;;;;;;6.70;3.00;;;3.80;99.90;;;;;;5035889;28;20041;-76
2021/12/05 04:13:18;;;;;;;8.93;3.72;;;3.80;99.90;;;;;;5047617;28;20400;-76
2021/12/05 04:15:45;;;;;;;7.05;3.72;;;3.80;99.90;;;;;;5029170;28;20120;-76
2021/12/05 04:18:11;;;;;;;1.38;1.13;;;3.80;99.90;;;;;;5072494;28;20057;-76
2021/12/05 04:20:36;;;;;;;5.22;3.42;;;3.90;99.90;;;;;;5025064;28;20041;-76
2021/12/05 04:23:03;;;;;;;6.15;3.58;;;3.80;99.90;;;;;;5053567;28;20053;-76
2021/12/05 04:25:29;;;;;;;12.80;2.80;;;3.90;99.90;;;;;;5042399;28;20413;-76
2021/12/05 04:27:55;;;;;;;7.15;2.67;;;3.90;99.90;;;;;;5069911;28;20052;-76
2021/12/05 04:30:24;;;;;;;10.68;5.95;;;3.80;99.90;;;;;;5043189;28;20045;-76
2021/12/05 04:32:50;;;;;;;3.42;1.85;;;3.90;99.90;;;;;;5043658;28;20158;-76
2021/12/05 04:35:16;;;;;;;9.35;4.28;;;3.90;99.90;;;;;;5038974;28;20045;-77
2021/12/05 04:37:42;;;;;;;4.05;3.10;;;3.90;99.90;;;;;;5046443;28;20037;-76
2021/12/05 04:40:09;;;;;;;17.88;3.47;;;3.90;99.90;;;;;;5055867;28;20048;-76
2021/12/05 04:42:35;;;;;;;2.05;1.73;;;3.90;99.90;;;;;;5057884;28;20119;-76
2021/12/05 04:45:04;;;;;;;1.13;1.05;;;3.90;99.90;;;;;;5029325;28;20064;-76
2021/12/05 04:47:30;;;;;;;7.57;3.53;;;3.90;99.90;;;;;;5071959;28;20158;-76
2021/12/05 04:49:56;;;;;;;3.40;2.22;;;3.90;99.90;;;;;;5044806;28;20208;-76
2021/12/05 04:52:22;;;;;;;4.60;3.20;;;3.90;99.90;;;;;;5054540;28;20099;-76
2021/12/05 04:54:48;;;;;;;3.92;1.63;;;3.80;99.90;;;;;;5069932;28;20072;-76
2021/12/05 04:57:13;;;;;;;5.18;2.40;;;3.90;99.90;;;;;;5036074;28;20073;-76
2021/12/05 04:59:45;;;;;;;12.38;6.57;;;3.80;99.90;;;;;;5045773;28;20041;-76
2021/12/05 05:02:11;;;;;;;7.23;4.03;;;3.80;99.90;;;;;;5071803;28;20497;-76
2021/12/05 05:04:48;;;;;;;3.40;1.48;;;3.80;99.90;;;;;;5058248;28;20041;-76
2021/12/05 05:07:24;;;;;;;4.50;2.67;;;3.80;99.90;;;;;;5039482;28;20048;-77
2021/12/05 05:09:58;;;;;;;4.10;2.60;;;3.80;99.90;;;;;;5075859;28;20047;-76
2021/12/05 05:12:24;;;;;;;3.55;3.05;;;3.80;99.90;;;;;;5057303;28;20046;-76
2021/12/05 05:14:51;;;;;;;21.48;8.15;;;3.70;99.90;;;;;;5048166;28;20052;-76
2021/12/05 05:17:17;;;;;;;10.73;2.60;;;3.80;99.90;;;;;;5041333;28;20132;-76
2021/12/05 05:19:50;;;;;;;4.00;2.10;;;3.70;99.90;;;;;;5042666;28;20128;-76
2021/12/05 05:45:47;;;;;;;3.80;3.42;;;3.60;99.90;;;;;;5051467;28;20043;-76
2021/12/05 05:50:39;;;;;;;2.67;2.00;;;3.50;99.90;;;;;;5046868;28;20056;-76
2021/12/05 05:53:06;;;;;;;6.45;2.05;;;3.50;99.90;;;;;;5068151;28;20037;-76
2021/12/05 05:55:33;;;;;;;0.63;0.63;;;3.50;99.90;;;;;;5032902;28;20044;-76
2021/12/05 05:58:09;;;;;;;1.95;1.20;;;3.50;99.90;;;;;;5049716;28;20052;-76
2021/12/05 06:00:42;;;;;;;3.65;3.35;;;3.50;99.90;;;;;;5047470;28;20403;-76
2021/12/05 06:03:21;;;;;;;;;;;3.40;99.90;;;;;;5028958;28;20033;-76
2021/12/05 06:05:51;;;;;;;8.63;3.60;;;3.40;99.90;;;;;;5049102;28;20263;-77
2021/12/05 06:08:19;;;;;;;4.70;1.88;;;3.40;99.90;;;;;;5033020;28;20036;-76
2021/12/05 06:10:45;;;;;;;0.68;0.68;;;3.30;99.90;;;;;;5048093;28;20132;-77
2021/12/05 06:13:11;;;;;;;2.80;2.00;;;3.30;99.90;;;;;;5046725;28;20124;-76
2021/12/05 06:15:37;;;;;;;6.95;3.15;;;3.30;99.90;;;;;;5043497;28;20124;-76
2021/12/05 06:18:03;;;;;;;1.85;1.75;;;3.30;99.90;;;;;;5069375;28;20503;-76
2021/12/05 06:20:30;;;;;;;6.68;2.38;;;3.30;99.90;;;;;;5035130;28;20371;-76
2021/12/05 06:22:57;;;;;;;2.92;1.77;;;3.30;99.90;;;;;;5045578;28;20043;-76
2021/12/05 06:25:25;;;;;;;1.00;1.00;;;3.30;99.90;;;;;;5060250;28;20045;-76
2021/12/05 06:27:53;;;;;;;11.35;2.78;;;3.20;99.90;;;;;;5067444;28;20079;-76
2021/12/05 06:46:24;;;;;;;1.45;1.35;;;3.20;99.90;;;;;;5046157;28;20556;-77
2021/12/05 06:48:46;;;;;;;2.00;1.80;;;3.20;99.90;;;;;;5046489;28;20060;-76
2021/12/05 06:51:15;;;;;;;4.70;2.30;;;3.20;99.90;;;;;;5073216;28;20048;-76
2021/12/05 06:53:41;;;;;;;0.40;0.40;;;3.20;99.90;;;;;;5057733;28;20128;-76
2021/12/05 06:56:07;;;;;;;2.20;2.03;;;3.20;99.90;;;;;;5057903;28;20379;-76
2021/12/05 06:58:34;;;;;;;1.17;1.13;;;3.20;99.90;;;;;;5049624;28;20527;-76
2021/12/05 07:01:02;;;;;;;6.60;1.77;;;3.20;99.90;;;;;;5026717;28;20033;-76
2021/12/05 07:03:28;;;;;;;4.25;1.77;;;3.10;99.90;;;;;;5043824;28;20037;-76
2021/12/05 07:08:22;;;;;;;1.85;1.02;;;3.10;99.90;;;;;;5072904;28;20033;-76
2021/12/05 07:10:54;;;;;;;1.65;1.50;;;3.10;99.90;;;;;;5068118;28;20115;-76
2021/12/05 07:16:02;;;;;;;3.58;2.78;;;3.00;99.90;;;;;;5071786;28;20060;-76
2021/12/05 07:26:46;;;;;;;3.15;2.60;;;3.10;99.90;;;;;;5046003;28;20048;-76
2021/12/05 07:42:41;;;;;;;1.70;1.60;;;3.20;99.90;;;;;;5045354;28;20044;-76
2021/12/05 07:45:19;;;;;;;7.88;1.27;;;3.20;99.90;;;;;;5070893;28;20081;-76
2021/12/05 07:47:49;;;;;;;2.00;1.35;;;3.20;99.90;;;;;;5043352;28;20184;-76
2021/12/05 07:50:16;;;;;;;2.78;2.03;;;3.30;99.90;;;;;;5035336;28;20410;-76
2021/12/05 07:52:46;;;;;;;5.18;2.38;;;3.30;99.90;;;;;;5047624;28;20049;-76
2021/12/05 07:55:41;;;;;;;1.52;1.42;;;3.30;99.90;;;;;;5039354;28;20048;-76
2021/12/05 08:00:57;;;;;;;3.58;2.33;;;3.30;99.90;;;;;;5072758;28;20041;-76
2021/12/05 08:14:34;;;;;;;7.03;3.95;;;3.40;99.90;;;;;;5074839;28;20041;-75
2021/12/05 08:17:01;;;;;;;1.25;1.15;;;3.50;99.90;;;;;;5044449;28;20520;-75
2021/12/05 08:19:27;;;;;;;1.88;1.38;;;3.50;99.90;;;;;;5039106;28;20049;-76
2021/12/05 08:21:56;;;;;;;4.00;2.35;;;3.50;99.90;;;;;;5042471;28;20056;-76
2021/12/05 08:24:25;;;;;;;0.73;0.73;;;3.50;99.90;;;;;;5044760;28;20040;-76
2021/12/05 08:26:52;;;;;;;2.25;2.05;;;3.50;99.90;;;;;;5072173;28;20041;-76
2021/12/05 08:29:26;;;;;;;7.78;2.85;;;3.50;99.90;;;;;;5059287;28;20060;-76
2021/12/05 09:29:07;;;;;;;2.38;1.88;;;4.20;99.90;;;;;;5051412;28;20400;-76
2021/12/05 09:31:00;;;;;;;1.75;1.13;;;4.30;99.90;;;;;;5044108;28;20048;-76
2021/12/05 09:39:48;;;;;;;0.95;0.95;;;4.40;99.90;;;;;;5041897;28;20106;-76
2021/12/05 10:09:21;;;;;;;0.75;0.60;;;4.50;99.90;;;;;;5048391;28;20386;-77
2021/12/05 10:15:01;;;;;;;2.00;1.88;;;4.40;99.90;;;;;;5031897;28;20407;-76
2021/12/05 10:20:29;;;;;;;1.42;1.33;;;4.40;99.90;;;;;;5047840;28;20057;-76
2021/12/05 10:38:47;;;;;;;0.55;0.55;;;4.40;99.90;;;;;;5035610;28;20585;-78
2021/12/05 10:41:35;;;;;;;0.50;0.50;;;4.40;99.90;;;;;;5040563;28;20040;-76
2021/12/05 10:44:23;;;;;;;0.73;0.73;;;4.50;99.90;;;;;;5075608;28;20037;-76
2021/12/05 10:46:50;;;;;;;8.70;2.58;;;4.50;99.90;;;;;;5076018;28;20413;-76
2021/12/05 10:49:17;;;;;;;1.30;1.20;;;4.50;99.90;;;;;;5037490;28;20051;-76
2021/12/05 10:51:49;;;;;;;0.50;0.50;;;4.50;99.90;;;;;;5036456;28;20413;-75
2021/12/05 10:54:18;;;;;;;0.35;0.35;;;4.60;99.90;;;;;;5034218;28;20052;-76
2021/12/05 10:57:01;;;;;;;1.55;1.45;;;4.60;99.90;;;;;;5060260;28;20037;-75
2021/12/05 10:59:39;;;;;;;1.33;1.23;;;4.60;99.90;;;;;;5068165;28;20131;-75
2021/12/05 11:02:08;;;;;;;1.48;1.38;;;4.60;99.90;;;;;;5084493;28;20045;-75
2021/12/05 11:04:40;;;;;;;0.32;0.32;;;4.60;99.90;;;;;;5072564;28;20098;-76
2021/12/05 11:07:10;;;;;;;2.42;2.15;;;4.60;99.90;;;;;;5048921;28;20033;-76
2021/12/05 11:09:46;;;;;;;2.53;1.92;;;4.60;99.90;;;;;;5033881;28;20041;-75
2021/12/05 11:12:26;;;;;;;4.07;3.08;;;4.60;99.90;;;;;;5032026;28;20453;-76
2021/12/05 11:15:01;;;;;;;6.03;3.13;;;4.60;99.90;;;;;;5046345;28;20033;-76
2021/12/05 11:17:32;;;;;;;3.92;2.03;;;4.60;99.90;;;;;;5025678;28;20045;-76
2021/12/05 11:20:08;;;;;;;1.20;1.15;;;4.60;99.90;;;;;;5046581;28;20042;-75
2021/12/05 11:22:44;;;;;;;0.52;0.52;;;4.60;99.90;;;;;;5033028;28;20072;-75
2021/12/05 11:25:21;;;;;;;11.30;3.67;;;4.60;99.90;;;;;;5029660;28;20037;-76
2021/12/05 11:27:49;;;;;;;3.88;2.80;;;4.60;99.90;;;;;;5034425;28;20049;-77
2021/12/05 11:30:31;;;;;;;0.70;0.70;;;4.60;99.90;;;;;;5029925;28;20075;-77
2021/12/05 11:33:03;;;;;;;2.83;2.53;;;4.60;99.90;;;;;;5049987;28;20041;-77
2021/12/05 11:35:45;;;;;;;3.05;2.80;;;4.60;99.90;;;;;;5030090;28;20128;-78
2021/12/05 11:38:13;;;;;;;10.52;3.13;;;4.60;99.90;;;;;;5047653;28;20048;-77
2021/12/05 11:40:44;;;;;;;0.77;0.77;;;4.60;99.90;;;;;;5046831;28;20045;-77
2021/12/05 11:43:14;;;;;;;1.63;1.52;;;4.60;99.90;;;;;;5032685;28;20048;-77
2021/12/05 11:46:00;;;;;;;2.80;1.90;;;4.70;99.90;;;;;;5051676;28;20033;-77
2021/12/05 11:48:32;;;;;;;1.63;1.38;;;4.70;99.90;;;;;;5060364;28;20409;-77
2021/12/05 11:51:00;;;;;;;1.13;1.10;;;4.70;99.90;;;;;;5052354;28;20041;-77
2021/12/05 11:53:48;;;;;;;5.63;2.22;;;4.70;99.90;;;;;;5048709;28;20127;-77
2021/12/05 11:56:36;;;;;;;4.47;2.72;;;4.80;99.90;;;;;;5041969;28;20051;-77
2021/12/05 11:59:11;;;;;;;1.77;1.67;;;4.80;99.90;;;;;;5040115;28;20044;-77
2021/12/05 12:02:01;;;;;;;1.60;1.23;;;4.80;99.90;;;;;;5050766;28;20044;-76
2021/12/05 12:04:57;;;;;;;4.13;3.03;;;4.90;99.90;;;;;;5032667;28;20077;-76
2021/12/05 12:07:32;;;;;;;13.38;4.70;;;4.90;99.90;;;;;;5051441;28;20037;-76
2021/12/05 12:10:01;;;;;;;0.85;0.85;;;4.90;99.90;;;;;;5028487;28;20037;-77
2021/12/05 12:12:27;;;;;;;2.25;1.67;;;4.90;99.90;;;;;;5034655;28;20093;-77
2021/12/05 12:14:54;;;;;;;3.03;2.08;;;4.90;99.90;;;;;;5054811;28;20044;-77
2021/12/05 12:17:20;;;;;;;0.38;0.38;;;5.00;99.90;;;;;;5041574;28;20583;-77
2021/12/05 12:19:48;;;;;;;1.02;0.80;;;5.00;99.90;;;;;;5034679;28;20150;-77
2021/12/05 12:22:19;;;;;;;0.57;0.55;;;5.00;99.90;;;;;;5031158;28;20041;-77
2021/12/05 12:24:49;;;;;;;5.78;2.17;;;5.10;99.90;;;;;;5036755;28;20080;-77
2021/12/05 12:27:14;;;;;;;4.93;2.65;;;5.10;99.90;;;;;;5044456;28;20155;-77
2021/12/05 12:29:42;;;;;;;0.30;0.30;;;5.20;99.90;;;;;;5040051;28;20201;-77
2021/12/05 12:32:15;;;;;;;8.40;2.40;;;5.20;99.90;;;;;;5059228;28;20112;-77
2021/12/05 12:34:43;;;;;;;2.08;1.85;;;5.30;99.90;;;;;;5038318;28;20044;-77
2021/12/05 12:37:10;;;;;;;6.80;2.22;;;5.30;99.90;;;;;;5049898;28;20048;-77
2021/12/05 12:39:41;;;;;;;1.00;0.77;;;5.40;99.90;;;;;;5035403;28;20144;-77
2021/12/05 12:42:23;;;;;;;1.92;1.83;;;5.40;99.90;;;;;;5041799;28;20098;-77
2021/12/05 12:45:18;;;;;;;0.88;0.82;;;5.50;99.90;;;;;;5059781;28;20040;-77
2021/12/05 12:47:54;;;;;;;10.07;3.08;;;5.50;99.90;;;;;;5019321;28;20049;-77
2021/12/05 12:50:33;;;;;;;3.03;2.35;;;5.50;99.90;;;;;;5045179;28;20550;-77
2021/12/05 12:53:02;;;;;;;1.02;0.98;;;5.60;99.90;;;;;;5027527;28;20048;-77
2021/12/05 12:55:36;;;;;;;5.40;2.25;;;5.60;99.90;;;;;;5044997;28;20052;-77
2021/12/05 12:58:05;;;;;;;1.50;1.40;;;5.70;99.90;;;;;;5031194;28;20042;-77
2021/12/05 13:00:33;;;;;;;9.00;4.10;;;5.70;99.90;;;;;;5022837;28;20048;-77
2021/12/05 13:03:13;;;;;;;0.85;0.82;;;5.80;99.90;;;;;;5025835;28;20044;-77
2021/12/05 13:11:18;;;;;;;5.93;3.45;;;5.80;99.90;;;;;;5039570;28;20045;-77
2021/12/05 13:13:56;;;;;;;1.77;1.35;;;5.80;99.90;;;;;;5026838;28;20040;-77
2021/12/05 13:16:29;;;;;;;5.18;3.63;;;5.70;99.90;;;;;;5038478;28;20048;-77
2021/12/05 13:19:15;;;;;;;2.90;2.22;;;5.70;99.90;;;;;;5034228;28;20122;-77
2021/12/05 13:21:46;;;;;;;3.25;2.00;;;5.70;99.90;;;;;;5045771;28;20040;-77
2021/12/05 13:24:27;;;;;;;1.70;1.52;;;5.60;99.90;;;;;;5037274;28;20044;-77
2021/12/05 13:27:26;;;;;;;1.48;1.38;;;5.70;99.90;;;;;;5048803;28;20041;-77
2021/12/05 13:29:55;;;;;;;1.70;1.52;;;5.70;99.90;;;;;;5050366;28;20052;-77
2021/12/05 13:32:31;;;;;;;3.58;2.38;;;5.60;99.90;;;;;;5060805;28;20047;-77
2021/12/05 13:35:04;;;;;;;2.22;2.00;;;5.70;99.90;;;;;;5046609;28;20452;-77
2021/12/05 13:37:32;;;;;;;5.65;2.13;;;5.70;99.90;;;;;;5025522;28;20045;-77
2021/12/05 13:40:13;;;;;;;0.88;0.70;;;5.70;99.90;;;;;;5050238;28;20515;-77
2021/12/05 13:42:44;;;;;;;3.67;1.95;;;5.70;99.90;;;;;;5049421;28;20128;-78
2021/12/05 13:45:26;;;;;;;0.57;0.57;;;5.70;99.90;;;;;;5035545;28;20123;-78
2021/12/05 13:47:52;;;;;;;0.63;0.63;;;5.70;99.90;;;;;;5053320;28;20052;-78
2021/12/05 13:50:18;;;;;;;1.73;1.48;;;5.70;99.90;;;;;;5050370;28;20397;-78
2021/12/05 13:52:53;;;;;;;2.38;2.17;;;5.70;99.90;;;;;;5055619;28;20041;-77
2021/12/05 13:55:37;;;;;;;0.82;0.82;;;5.60;99.90;;;;;;5042592;28;20049;-78
2021/12/05 13:58:34;;;;;;;1.95;1.77;;;5.60;99.90;;;;;;5056123;28;20502;-77
2021/12/05 14:01:12;;;;;;;3.25;2.80;;;5.60;99.90;;;;;;5041727;28;20375;-77
2021/12/05 14:03:46;;;;;;;3.03;2.13;;;5.60;99.90;;;;;;5081333;28;20036;-77
2021/12/05 14:06:41;;;;;;;4.78;2.95;;;5.60;99.90;;;;;;5030805;28;20515;-77
2021/12/05 14:09:20;;;;;;;0.57;0.50;;;5.50;99.90;;;;;;5048667;28;20049;-77
2021/12/05 14:11:52;;;;;;;2.20;2.00;;;5.50;99.90;;;;;;5076155;28;20116;-77
2021/12/05 14:14:22;;;;;;;2.28;2.08;;;5.50;99.90;;;;;;5033952;28;20528;-77
2021/12/05 14:16:49;;;;;;;1.15;0.98;;;5.50;99.90;;;;;;5058970;28;20051;-77
2021/12/05 14:19:18;;;;;;;1.55;1.02;;;5.40;99.90;;;;;;5080109;28;20606;-77
2021/12/05 14:21:48;;;;;;;4.13;2.83;;;5.40;99.90;;;;;;5032938;28;20044;-77
2021/12/05 14:24:17;;;;;;;1.25;1.15;;;5.40;99.90;;;;;;5079504;28;20036;-77
2021/12/05 14:26:46;;;;;;;3.42;2.58;;;5.40;99.90;;;;;;5051605;28;20037;-77
2021/12/05 14:29:15;;;;;;;2.20;1.33;;;5.40;99.90;;;;;;5055969;28;20044;-77
2021/12/05 14:31:45;;;;;;;6.80;3.20;;;5.40;99.90;;;;;;5048623;28;20049;-77
2021/12/05 14:34:12;;;;;;;5.03;1.52;;;5.30;99.90;;;;;;5035235;28;20405;-77
2021/12/05 14:36:48;;;;;;;2.10;2.00;;;5.40;99.90;;;;;;5036797;28;20044;-77
2021/12/05 14:39:30;;;;;;;0.57;0.57;;;5.30;99.90;;;;;;5081676;28;20037;-78
2021/12/05 14:42:04;;;;;;;9.98;4.10;;;5.30;99.90;;;;;;5029963;28;20088;-77
2021/12/05 14:44:31;;;;;;;1.08;1.08;;;5.30;99.90;;;;;;5043857;28;20124;-77
2021/12/05 14:47:04;;;;;;;6.05;3.15;;;5.20;99.90;;;;;;5068588;28;20362;-77
2021/12/05 14:49:31;;;;;;;;;;;5.20;99.90;;;;;;5040696;28;20041;-77
2021/12/05 14:51:58;;;;;;;6.72;3.15;;;5.20;99.90;;;;;;5062516;28;19928;-78
2021/12/05 14:54:29;;;;;;;7.32;3.03;;;5.20;99.90;;;;;;5051475;28;20044;-77
2021/12/05 14:56:57;;;;;;;4.03;1.70;;;5.20;99.90;;;;;;5063532;28;20068;-77
2021/12/05 14:59:23;;;;;;;2.10;1.70;;;5.10;99.90;;;;;;5048577;28;20036;-77
2021/12/05 15:01:57;;;;;;;2.90;2.38;;;5.10;99.90;;;;;;5027337;28;20485;-77
2021/12/05 15:04:30;;;;;;;2.25;1.23;;;5.10;99.90;;;;;;5031143;28;20131;-77
2021/12/05 15:06:59;;;;;;;1.45;1.35;;;5.10;99.90;;;;;;5031176;28;20467;-78
2021/12/05 15:09:28;;;;;;;1.58;1.48;;;5.10;99.90;;;;;;5044229;28;20127;-78
2021/12/05 15:12:01;;;;;;;1.42;1.33;;;5.10;99.90;;;;;;5031611;28;20049;-78
2021/12/05 15:14:28;;;;;;;2.63;2.13;;;5.10;99.90;;;;;;5030534;28;20658;-77
2021/12/05 15:16:58;;;;;;;2.17;1.90;;;5.10;99.90;;;;;;5057910;28;20052;-77
2021/12/05 15:19:24;;;;;;;3.55;2.25;;;5.10;99.90;;;;;;5021859;28;20048;-77
2021/12/05 15:21:50;;;;;;;1.85;1.63;;;5.10;99.90;;;;;;5045884;28;20044;-78
2021/12/05 15:24:19;;;;;;;2.08;1.98;;;5.10;99.90;;;;;;5045756;28;20564;-78
2021/12/05 15:26:45;;;;;;;2.25;2.05;;;5.10;99.90;;;;;;5047757;28;20045;-78
2021/12/05 15:29:11;;;;;;;9.38;2.45;;;5.10;99.90;;;;;;5045016;28;20062;-78
2021/12/05 15:31:40;;;;;;;11.63;3.58;;;5.10;99.90;;;;;;5031086;28;20043;-78
2021/12/05 15:34:21;;;;;;;5.00;2.22;;;5.10;99.90;;;;;;5045325;28;20049;-77
2021/12/05 15:36:47;;;;;;;2.70;1.65;;;5.10;99.90;;;;;;5026970;28;20098;-77
2021/12/05 15:39:20;;;;;;;5.53;3.25;;;5.10;99.90;;;;;;5026455;28;20671;-77
2021/12/05 15:41:52;;;;;;;3.42;2.38;;;5.10;99.90;;;;;;5027535;28;20036;-77
2021/12/05 15:44:25;;;;;;;13.43;5.30;;;5.10;99.90;;;;;;5066116;28;20068;-77
2021/12/05 15:47:00;;;;;;;1.10;1.00;;;5.00;99.90;;;;;;5050077;28;20103;-78
2021/12/05 15:49:28;;;;;;;8.02;4.78;;;5.10;99.90;;;;;;5080137;28;20112;-77
2021/12/05 15:52:03;;;;;;;0.70;0.70;;;5.00;99.90;;;;;;5033949;28;20045;-78
2021/12/05 15:54:29;;;;;;;1.55;1.27;;;5.10;99.90;;;;;;5055781;28;20037;-78
2021/12/05 15:57:09;;;;;;;2.70;2.03;;;5.10;99.90;;;;;;5049461;28;20041;-78
2021/12/05 15:59:39;;;;;;;20.92;4.68;;;5.00;99.90;;;;;;5073405;28;20425;-78
2021/12/05 16:02:10;;;;;;;6.57;3.20;;;5.10;99.90;;;;;;5070107;28;20086;-77
2021/12/05 16:04:36;;;;;;;9.13;2.90;;;5.00;99.90;;;;;;5043277;28;20044;-77
2021/12/05 16:07:03;;;;;;;6.50;3.13;;;5.00;99.90;;;;;;5065835;28;20040;-77
2021/12/05 16:09:29;;;;;;;13.55;4.82;;;5.00;99.90;;;;;;5069432;28;20044;-78
2021/12/05 16:12:17;;;;;;;8.32;3.80;;;5.00;99.90;;;;;;5069375;28;20101;-77
2021/12/05 16:14:46;;;;;;;3.25;2.50;;;4.90;99.90;;;;;;5060672;28;20040;-77
2021/12/05 16:17:31;;;;;;;7.93;4.50;;;4.90;99.90;;;;;;5023269;28;20052;-77
2021/12/05 16:20:20;;;;;;;7.40;4.18;;;4.90;99.90;;;;;;5054757;28;20055;-78
2021/12/05 16:23:07;;;;;;;4.82;3.70;;;4.90;99.90;;;;;;5060639;28;20052;-78
2021/12/05 16:25:39;;;;;;;4.38;3.78;;;4.90;99.90;;;;;;5044406;28;20037;-77
2021/12/05 16:28:07;;;;;;;4.07;3.50;;;4.90;99.90;;;;;;5068460;28;20094;-77
2021/12/05 16:30:37;;;;;;;8.77;5.78;;;4.90;99.90;;;;;;5054778;28;20079;-78
2021/12/05 16:33:04;;;;;;;9.82;5.28;;;4.80;99.90;;;;;;5037524;28;20487;-77
2021/12/05 16:35:43;;;;;;;5.95;4.38;;;4.90;99.90;;;;;;5060176;28;20045;-78
2021/12/05 16:38:36;;;;;;;9.90;3.83;;;4.80;99.90;;;;;;5061796;28;20124;-77
2021/12/05 16:41:07;;;;;;;2.95;2.63;;;4.80;99.90;;;;;;5035345;28;20055;-77
2021/12/05 16:43:35;;;;;;;2.65;2.45;;;4.80;99.90;;;;;;5036045;28;20048;-77
2021/12/05 16:46:18;;;;;;;14.30;5.28;;;4.80;99.90;;;;;;5064554;28;20040;-77
2021/12/05 16:48:45;;;;;;;;;;;4.80;99.90;;;;;;5051621;28;20068;-77
2021/12/05 16:51:38;;;;;;;6.85;3.40;;;4.80;99.90;;;;;;5040122;28;19927;-77
2021/12/05 16:54:18;;;;;;;4.07;1.15;;;4.80;99.90;;;;;;5014540;28;20178;-78
2021/12/05 16:56:56;;;;;;;3.38;2.15;;;4.80;99.90;;;;;;5051999;28;20044;-78
2021/12/05 16:59:41;;;;;;;0.70;0.70;;;4.80;99.90;;;;;;5045471;28;20059;-78
2021/12/05 17:02:12;;;;;;;8.77;4.05;;;4.70;99.90;;;;;;5059915;28;20448;-77
2021/12/05 17:05:03;;;;;;;9.32;4.85;;;4.80;99.90;;;;;;5072847;28;20128;-77
2021/12/05 17:08:08;;;;;;;7.15;6.00;;;4.80;99.90;;;;;;5051910;28;20044;-77
2021/12/05 17:10:55;;;;;;;5.18;3.55;;;4.80;99.90;;;;;;5048406;28;20036;-77
2021/12/05 17:13:48;;;;;;;16.45;9.57;;;4.80;99.90;;;;;;5073085;28;20037;-78
2021/12/05 17:16:24;;;;;;;;;;;4.80;99.90;;;;;;5084835;28;20385;-78
2021/12/05 17:19:01;;;;;;;23.25;10.07;;;4.80;99.90;;;;;;5052858;28;19921;-78
2021/12/05 17:21:48;;;;;;;3.45;3.20;;;4.80;99.90;;;;;;5057253;28;20093;-78
2021/12/05 17:24:26;;;;;;;13.50;6.03;;;4.80;99.90;;;;;;5072373;28;20558;-78
2021/12/05 17:26:57;;;;;;;9.20;6.25;;;4.80;99.90;;;;;;5049207;28;20818;-77
2021/12/05 17:29:31;;;;;;;11.65;5.10;;;4.80;99.90;;;;;;5078651;28;20044;-78
2021/12/05 17:32:04;;;;;;;8.88;5.45;;;4.70;99.90;;;;;;5066695;28;20110;-78
2021/12/05 17:34:36;;;;;;;14.85;7.40;;;4.70;99.90;;;;;;5048979;28;20045;-78
2021/12/05 17:37:06;;;;;;;6.28;3.22;;;4.70;99.90;;;;;;5055333;28;20037;-78
2021/12/05 17:39:35;;;;;;;12.07;6.55;;;4.70;99.90;;;;;;5051880;28;20110;-77
2021/12/05 17:42:05;;;;;;;4.75;3.25;;;4.60;99.90;;;;;;5037674;28;20052;-77
2021/12/05 17:44:31;;;;;;;20.02;10.60;;;4.60;99.90;;;;;;5054805;28;20083;-77
2021/12/05 17:47:03;;;;;;;17.52;10.02;;;4.70;99.90;;;;;;5063774;28;20036;-78
2021/12/05 17:49:31;;;;;;;16.88;10.00;;;4.60;99.90;;;;;;5071925;28;20052;-78
2021/12/05 17:51:59;;;;;;;24.50;10.93;;;4.70;99.90;;;;;;5054468;28;20049;-78
2021/12/05 17:54:35;;;;;;;8.35;5.80;;;4.70;99.90;;;;;;5068674;28;20159;-77
2021/12/05 17:57:30;;;;;;;15.45;9.45;;;4.60;99.90;;;;;;5053123;28;20036;-78
2021/12/05 18:05:18;;;;;;;24.77;12.88;;;4.60;99.90;;;;;;5055400;28;20109;-78
2021/12/05 18:07:44;;;;;;;3.95;3.45;;;4.70;99.90;;;;;;5065310;28;20076;-77
2021/12/05 18:10:12;;;;;;;12.75;7.72;;;4.60;99.90;;;;;;5065720;28;20044;-77
2021/12/05 18:12:38;;;;;;;8.20;5.22;;;4.60;99.90;;;;;;5060793;28;20045;-78
2021/12/05 18:15:13;;;;;;;15.65;8.52;;;4.50;99.90;;;;;;5068071;28;20043;-77
2021/12/05 18:17:40;;;;;;;14.75;8.25;;;4.50;99.90;;;;;;5040543;28;20408;-78
2021/12/05 18:20:08;;;;;;;6.15;3.08;;;4.50;99.90;;;;;;5070204;28;20458;-78
2021/12/05 18:22:35;;;;;;;10.00;5.85;;;4.50;99.90;;;;;;5082036;28;20033;-78
2021/12/05 18:25:02;;;;;;;11.68;7.28;;;4.40;99.90;;;;;;5046282;28;20136;-77
2021/12/05 18:27:28;;;;;;;10.38;6.40;;;4.40;99.90;;;;;;5053679;28;20591;-77
2021/12/05 18:29:54;;;;;;;8.95;5.82;;;4.40;99.90;;;;;;5060905;28;20090;-78
2021/12/05 18:32:20;;;;;;;8.70;4.93;;;4.40;99.90;;;;;;5048280;28;20041;-78
2021/12/05 18:34:46;;;;;;;7.78;4.72;;;4.40;99.90;;;;;;5071272;28;20036;-77
2021/12/05 18:37:12;;;;;;;8.60;5.60;;;4.30;99.90;;;;;;5049834;28;20830;-78
2021/12/05 18:39:48;;;;;;;6.15;4.55;;;4.30;99.90;;;;;;5050772;28;20052;-78
2021/12/05 18:42:17;;;;;;;14.82;8.38;;;4.30;99.90;;;;;;5042503;28;20452;-78
2021/12/05 18:44:48;;;;;;;14.63;8.57;;;4.30;99.90;;;;;;5063676;28;20043;-78
2021/12/05 18:47:15;;;;;;;11.30;7.55;;;4.30;99.90;;;;;;5066199;28;20039;-78
2021/12/05 18:49:41;;;;;;;8.93;5.05;;;4.30;99.90;;;;;;5073740;28;20045;-78